Terminal Aerodrome Forecast
Issued by NWS

Home | Current Version | Previous Version | Graphics & Text | Print | Product List | Glossary On
Versions: 1 2 3 4 5 6 7 8 9 10 11 12 13 14 15 16 17 18 19
000
FTUS43 KFGF 042355
TAFBJI
TAF
KBJI 042355Z 0500/0524 17008KT 5SM HZ SKC
     FM050400 17007KT 5SM HZ BKN250
     FM051000 17008KT P6SM VCSH BKN070
     FM051500 17010KT P6SM BKN120=

USA.gov is the U.S. government's official web portal to all federal, state and local government web resources and services.